TimeMST,TemperatureF,Dew PointF,Humidity,Sea Level PressureIn,VisibilityMPH,Wind Direction,Wind SpeedMPH,Gust SpeedMPH,PrecipitationIn,Events,Conditions,WindDirDegrees,DateUTC
12:52 AM,36.0,12.9,39,29.80,10.0,ESE,17.3,24.2,N/A,,Scattered Clouds,110,2011-12-01 07:52:00
1:52 AM,36.0,14.0,41,29.78,10.0,ESE,20.7,26.5,N/A,,Clear,110,2011-12-01 08:52:00
2:52 AM,35.1,15.1,44,29.80,10.0,ESE,15.0,-,N/A,,Clear,110,2011-12-01 09:52:00
3:52 AM,33.1,16.0,50,29.86,10.0,East,12.7,-,N/A,,Clear,90,2011-12-01 10:52:00
4:52 AM,32.0,17.1,54,29.91,10.0,East,23.0,32.2,N/A,,Clear,100,2011-12-01 11:52:00
5:52 AM,30.9,18.0,59,29.94,10.0,ESE,21.9,34.5,N/A,,Clear,110,2011-12-01 12:52:00
6:52 AM,30.0,16.0,56,29.99,9.0,ESE,28.8,36.8,N/A,,Scattered Clouds,110,2011-12-01 13:52:00
7:52 AM,30.9,16.0,54,30.09,9.0,NE,10.4,19.6,N/A,,Clear,50,2011-12-01 14:52:00
8:08 AM,32.0,15.8,51,30.09,2.0,ENE,15.0,25.3,N/A,,Haze,70,2011-12-01 15:08:00
8:16 AM,32.0,14.0,48,30.09,1.2,ENE,15.0,27.6,N/A,,Haze,60,2011-12-01 15:16:00
8:33 AM,33.8,14.0,44,30.08,1.2,ENE,23.0,32.2,N/A,,Haze,70,2011-12-01 15:33:00
8:47 AM,33.8,14.0,44,30.09,3.0,ENE,23.0,34.5,N/A,,Haze,70,2011-12-01 15:47:00
8:52 AM,35.1,14.0,42,30.09,3.0,East,26.5,35.7,N/A,,Haze,80,2011-12-01 15:52:00
9:09 AM,35.6,14.0,41,30.09,5.0,East,25.3,38.0,N/A,,Haze,100,2011-12-01 16:09:00
9:26 AM,33.8,17.6,52,30.10,7.0,West,10.4,21.9,N/A,,Overcast,280,2011-12-01 16:26:00
9:52 AM,35.1,17.1,48,30.11,10.0,WNW,11.5,18.4,N/A,,Overcast,290,2011-12-01 16:52:00
10:08 AM,37.4,17.6,45,30.11,10.0,NW,10.4,-,N/A,,Mostly Cloudy,310,2011-12-01 17:08:00
10:47 AM,39.2,12.2,33,30.12,5.0,East,13.8,34.5,N/A,,Haze,90,2011-12-01 17:47:00
10:52 AM,39.0,12.0,33,30.10,6.0,East,32.2,36.8,N/A,,Haze,100,2011-12-01 17:52:00
11:52 AM,37.9,10.9,33,30.08,4.0,East,33.4,46.0,N/A,,Haze,100,2011-12-01 18:52:00
12:04 PM,39.2,10.4,31,30.10,4.0,East,29.9,47.2,N/A,,Haze,100,2011-12-01 19:04:00
12:24 PM,39.2,10.4,31,30.10,3.0,East,32.2,46.0,N/A,,Haze,100,2011-12-01 19:24:00
12:52 PM,36.0,10.0,34,30.06,4.0,East,35.7,52.9,N/A,,Haze,100,2011-12-01 19:52:00
1:38 PM,33.8,10.4,38,30.08,5.0,East,31.1,50.6,N/A,,Haze,100,2011-12-01 20:38:00
1:52 PM,34.0,9.0,35,30.06,6.0,East,32.2,47.2,N/A,,Haze,100,2011-12-01 20:52:00
2:52 PM,32.0,9.0,38,30.08,8.0,ESE,34.5,43.7,N/A,,Overcast,110,2011-12-01 21:52:00
3:52 PM,30.0,9.0,41,30.15,10.0,East,27.6,35.7,N/A,,Overcast,100,2011-12-01 22:52:00
4:52 PM,27.0,10.0,49,30.18,10.0,ESE,23.0,34.5,N/A,,Mostly Cloudy,110,2011-12-01 23:52:00
5:52 PM,27.0,9.0,47,30.25,10.0,ENE,12.7,-,N/A,,Clear,70,2011-12-02 00:52:00
6:52 PM,24.1,10.0,55,30.28,10.0,West,8.1,-,N/A,,Clear,280,2011-12-02 01:52:00
7:52 PM,21.9,10.0,60,30.31,10.0,NW,9.2,-,N/A,,Clear,320,2011-12-02 02:52:00
8:52 PM,21.9,10.0,60,30.29,10.0,NNW,8.1,-,N/A,,Clear,330,2011-12-02 03:52:00
9:52 PM,19.9,10.9,68,30.30,10.0,NNW,11.5,-,N/A,,Clear,330,2011-12-02 04:52:00
10:52 PM,16.0,9.0,74,30.31,10.0,NW,5.8,-,N/A,,Clear,310,2011-12-02 05:52:00
11:52 PM,15.1,8.1,74,30.30,10.0,NW,3.5,-,N/A,,Clear,310,2011-12-02 06:52:00